sensor_id;sensor_type;location;lat;lon;timestamp;P1;durP1;ratioP1;P2;durP2;ratioP2
53245;SDS011;39569;51.090;-1.786;2023-08-17T00:02:05;4.28;;;3.88;;
53245;SDS011;39569;51.090;-1.786;2023-08-17T00:04:32;4.82;;;4.43;;
53245;SDS011;39569;51.090;-1.786;2023-08-17T00:06:59;4.70;;;4.40;;
53245;SDS011;39569;51.090;-1.786;2023-08-17T00:09:26;5.10;;;4.63;;
53245;SDS011;39569;51.090;-1.786;2023-08-17T00:11:53;6.10;;;4.10;;
53245;SDS011;39569;51.090;-1.786;2023-08-17T00:14:20;5.97;;;5.32;;
53245;SDS011;39569;51.090;-1.786;2023-08-17T00:16:46;6.18;;;5.03;;
53245;SDS011;39569;51.090;-1.786;2023-08-17T00:19:15;5.20;;;4.70;;
53245;SDS011;39569;51.090;-1.786;2023-08-17T00:21:42;4.82;;;4.40;;
53245;SDS011;39569;51.090;-1.786;2023-08-17T00:24:08;4.47;;;4.18;;
53245;SDS011;39569;51.090;-1.786;2023-08-17T00:26:35;7.13;;;4.47;;
53245;SDS011;39569;51.090;-1.786;2023-08-17T00:29:02;4.57;;;3.85;;
53245;SDS011;39569;51.090;-1.786;2023-08-17T00:31:29;6.70;;;4.18;;
53245;SDS011;39569;51.090;-1.786;2023-08-17T00:33:56;6.72;;;4.80;;
53245;SDS011;39569;51.090;-1.786;2023-08-17T00:36:24;4.45;;;4.05;;
53245;SDS011;39569;51.090;-1.786;2023-08-17T00:38:51;3.95;;;3.65;;
53245;SDS011;39569;51.090;-1.786;2023-08-17T00:41:18;4.70;;;4.22;;
53245;SDS011;39569;51.090;-1.786;2023-08-17T00:43:45;3.90;;;3.58;;
53245;SDS011;39569;51.090;-1.786;2023-08-17T00:46:11;4.43;;;4.07;;
53245;SDS011;39569;51.090;-1.786;2023-08-17T00:48:39;5.15;;;4.20;;
53245;SDS011;39569;51.090;-1.786;2023-08-17T00:51:06;6.57;;;4.25;;
53245;SDS011;39569;51.090;-1.786;2023-08-17T00:53:35;4.50;;;4.13;;
53245;SDS011;39569;51.090;-1.786;2023-08-17T00:56:02;4.70;;;4.30;;
53245;SDS011;39569;51.090;-1.786;2023-08-17T00:58:30;4.53;;;4.10;;
53245;SDS011;39569;51.090;-1.786;2023-08-17T01:00:57;4.60;;;4.18;;
53245;SDS011;39569;51.090;-1.786;2023-08-17T01:03:25;6.72;;;4.28;;
53245;SDS011;39569;51.090;-1.786;2023-08-17T01:05:54;8.13;;;5.10;;
53245;SDS011;39569;51.090;-1.786;2023-08-17T01:08:21;5.35;;;4.82;;
53245;SDS011;39569;51.090;-1.786;2023-08-17T01:10:52;4.13;;;3.72;;
53245;SDS011;39569;51.090;-1.786;2023-08-17T01:13:29;5.00;;;4.50;;
53245;SDS011;39569;51.090;-1.786;2023-08-17T01:16:02;6.55;;;4.53;;
53245;SDS011;39569;51.090;-1.786;2023-08-17T01:18:33;8.95;;;3.17;;
53245;SDS011;39569;51.090;-1.786;2023-08-17T01:21:03;6.82;;;3.97;;
53245;SDS011;39569;51.090;-1.786;2023-08-17T01:23:33;3.53;;;3.22;;
53245;SDS011;39569;51.090;-1.786;2023-08-17T01:26:00;4.20;;;3.85;;
53245;SDS011;39569;51.090;-1.786;2023-08-17T01:28:27;4.63;;;4.22;;
53245;SDS011;39569;51.090;-1.786;2023-08-17T01:30:55;3.67;;;3.38;;
53245;SDS011;39569;51.090;-1.786;2023-08-17T01:33:26;4.20;;;3.80;;
53245;SDS011;39569;51.090;-1.786;2023-08-17T01:36:04;4.65;;;4.00;;
53245;SDS011;39569;51.090;-1.786;2023-08-17T01:38:38;3.67;;;3.38;;
53245;SDS011;39569;51.090;-1.786;2023-08-17T01:41:06;3.17;;;2.97;;
53245;SDS011;39569;51.090;-1.786;2023-08-17T01:43:38;4.50;;;4.13;;
53245;SDS011;39569;51.090;-1.786;2023-08-17T01:46:05;3.70;;;3.40;;
53245;SDS011;39569;51.090;-1.786;2023-08-17T01:48:33;3.38;;;3.17;;
53245;SDS011;39569;51.090;-1.786;2023-08-17T01:51:00;4.55;;;4.25;;
53245;SDS011;39569;51.090;-1.786;2023-08-17T01:53:26;5.07;;;4.45;;
53245;SDS011;39569;51.090;-1.786;2023-08-17T01:55:55;4.80;;;4.47;;
53245;SDS011;39569;51.090;-1.786;2023-08-17T01:58:22;7.40;;;5.63;;
53245;SDS011;39569;51.090;-1.786;2023-08-17T02:00:48;4.63;;;4.22;;
53245;SDS011;39569;51.090;-1.786;2023-08-17T02:03:15;4.80;;;4.40;;
53245;SDS011;39569;51.090;-1.786;2023-08-17T02:05:43;6.80;;;6.00;;
53245;SDS011;39569;51.090;-1.786;2023-08-17T02:08:11;6.55;;;5.97;;
53245;SDS011;39569;51.090;-1.786;2023-08-17T02:10:38;5.72;;;5.22;;
53245;SDS011;39569;51.090;-1.786;2023-08-17T02:13:06;6.03;;;5.47;;
53245;SDS011;39569;51.090;-1.786;2023-08-17T02:15:37;6.10;;;4.97;;
53245;SDS011;39569;51.090;-1.786;2023-08-17T02:18:04;6.40;;;5.72;;
53245;SDS011;39569;51.090;-1.786;2023-08-17T02:20:31;8.10;;;7.30;;
53245;SDS011;39569;51.090;-1.786;2023-08-17T02:22:58;5.40;;;5.00;;
53245;SDS011;39569;51.090;-1.786;2023-08-17T02:25:25;7.35;;;6.75;;
53245;SDS011;39569;51.090;-1.786;2023-08-17T02:27:59;20.50;;;5.65;;
53245;SDS011;39569;51.090;-1.786;2023-08-17T02:30:27;7.18;;;6.43;;
53245;SDS011;39569;51.090;-1.786;2023-08-17T02:32:54;6.95;;;6.07;;
53245;SDS011;39569;51.090;-1.786;2023-08-17T02:35:21;7.30;;;6.72;;
53245;SDS011;39569;51.090;-1.786;2023-08-17T02:37:48;6.68;;;6.13;;
53245;SDS011;39569;51.090;-1.786;2023-08-17T02:40:15;7.38;;;6.68;;
53245;SDS011;39569;51.090;-1.786;2023-08-17T02:42:42;6.22;;;5.70;;
53245;SDS011;39569;51.090;-1.786;2023-08-17T02:45:09;9.57;;;6.20;;
53245;SDS011;39569;51.090;-1.786;2023-08-17T02:47:37;7.30;;;6.63;;
53245;SDS011;39569;51.090;-1.786;2023-08-17T02:50:05;6.25;;;5.75;;
53245;SDS011;39569;51.090;-1.786;2023-08-17T02:52:32;6.45;;;5.97;;
53245;SDS011;39569;51.090;-1.786;2023-08-17T02:55:00;6.30;;;5.80;;
53245;SDS011;39569;51.090;-1.786;2023-08-17T02:57:27;7.97;;;7.10;;
53245;SDS011;39569;51.090;-1.786;2023-08-17T02:59:53;7.70;;;6.97;;
53245;SDS011;39569;51.090;-1.786;2023-08-17T03:02:20;7.85;;;7.22;;
53245;SDS011;39569;51.090;-1.786;2023-08-17T03:04:48;8.45;;;7.70;;
53245;SDS011;39569;51.090;-1.786;2023-08-17T03:07:15;8.57;;;7.78;;
53245;SDS011;39569;51.090;-1.786;2023-08-17T03:09:42;9.60;;;8.90;;
53245;SDS011;39569;51.090;-1.786;2023-08-17T03:12:09;9.05;;;7.95;;
53245;SDS011;39569;51.090;-1.786;2023-08-17T03:14:35;9.43;;;8.63;;
53245;SDS011;39569;51.090;-1.786;2023-08-17T03:17:02;10.35;;;9.35;;
53245;SDS011;39569;51.090;-1.786;2023-08-17T03:19:29;8.85;;;8.25;;
53245;SDS011;39569;51.090;-1.786;2023-08-17T03:21:57;10.32;;;9.43;;
53245;SDS011;39569;51.090;-1.786;2023-08-17T03:24:24;12.30;;;11.20;;
53245;SDS011;39569;51.090;-1.786;2023-08-17T03:26:51;12.15;;;11.23;;
53245;SDS011;39569;51.090;-1.786;2023-08-17T03:29:17;12.32;;;11.23;;
53245;SDS011;39569;51.090;-1.786;2023-08-17T03:31:44;12.88;;;11.77;;
53245;SDS011;39569;51.090;-1.786;2023-08-17T03:34:11;15.95;;;14.48;;
53245;SDS011;39569;51.090;-1.786;2023-08-17T03:36:38;17.58;;;14.98;;
53245;SDS011;39569;51.090;-1.786;2023-08-17T03:39:06;16.60;;;15.05;;
53245;SDS011;39569;51.090;-1.786;2023-08-17T03:41:33;17.40;;;15.70;;
53245;SDS011;39569;51.090;-1.786;2023-08-17T03:44:01;19.27;;;17.48;;
53245;SDS011;39569;51.090;-1.786;2023-08-17T03:46:28;24.40;;;21.80;;
53245;SDS011;39569;51.090;-1.786;2023-08-17T03:48:55;23.65;;;21.33;;
53245;SDS011;39569;51.090;-1.786;2023-08-17T03:51:22;25.92;;;23.00;;
53245;SDS011;39569;51.090;-1.786;2023-08-17T03:53:49;28.60;;;24.63;;
53245;SDS011;39569;51.090;-1.786;2023-08-17T03:56:17;26.08;;;23.45;;
53245;SDS011;39569;51.090;-1.786;2023-08-17T03:58:44;30.30;;;27.30;;
53245;SDS011;39569;51.090;-1.786;2023-08-17T04:01:11;32.83;;;27.88;;
53245;SDS011;39569;51.090;-1.786;2023-08-17T04:03:39;35.17;;;31.33;;
53245;SDS011;39569;51.090;-1.786;2023-08-17T04:06:05;33.72;;;30.05;;
53245;SDS011;39569;51.090;-1.786;2023-08-17T04:08:35;32.20;;;28.73;;
53245;SDS011;39569;51.090;-1.786;2023-08-17T04:11:02;35.92;;;31.98;;
53245;SDS011;39569;51.090;-1.786;2023-08-17T04:13:30;38.28;;;32.33;;
53245;SDS011;39569;51.090;-1.786;2023-08-17T04:15:57;50.53;;;33.25;;
53245;SDS011;39569;51.090;-1.786;2023-08-17T04:18:24;35.30;;;31.55;;
53245;SDS011;39569;51.090;-1.786;2023-08-17T04:20:51;42.22;;;32.10;;
53245;SDS011;39569;51.090;-1.786;2023-08-17T04:23:17;40.28;;;32.55;;
53245;SDS011;39569;51.090;-1.786;2023-08-17T04:25:46;36.78;;;32.08;;
53245;SDS011;39569;51.090;-1.786;2023-08-17T04:28:13;33.85;;;29.58;;
53245;SDS011;39569;51.090;-1.786;2023-08-17T04:30:41;32.85;;;29.27;;
53245;SDS011;39569;51.090;-1.786;2023-08-17T04:33:08;47.65;;;31.02;;
53245;SDS011;39569;51.090;-1.786;2023-08-17T04:35:35;39.65;;;29.35;;
53245;SDS011;39569;51.090;-1.786;2023-08-17T04:38:02;30.77;;;27.63;;
53245;SDS011;39569;51.090;-1.786;2023-08-17T04:40:29;33.80;;;30.42;;
53245;SDS011;39569;51.090;-1.786;2023-08-17T04:42:56;32.95;;;26.70;;
53245;SDS011;39569;51.090;-1.786;2023-08-17T04:45:23;37.50;;;27.20;;
53245;SDS011;39569;51.090;-1.786;2023-08-17T04:47:51;29.83;;;26.10;;
53245;SDS011;39569;51.090;-1.786;2023-08-17T04:50:19;30.85;;;27.63;;
53245;SDS011;39569;51.090;-1.786;2023-08-17T04:52:45;35.60;;;28.70;;
53245;SDS011;39569;51.090;-1.786;2023-08-17T04:55:12;32.22;;;25.98;;
53245;SDS011;39569;51.090;-1.786;2023-08-17T04:57:40;35.28;;;27.30;;
53245;SDS011;39569;51.090;-1.786;2023-08-17T05:00:07;27.65;;;24.80;;
53245;SDS011;39569;51.090;-1.786;2023-08-17T05:02:34;28.45;;;25.45;;
53245;SDS011;39569;51.090;-1.786;2023-08-17T05:05:04;31.02;;;25.92;;
53245;SDS011;39569;51.090;-1.786;2023-08-17T05:07:31;30.42;;;27.02;;
53245;SDS011;39569;51.090;-1.786;2023-08-17T05:09:59;27.48;;;24.65;;
53245;SDS011;39569;51.090;-1.786;2023-08-17T05:12:26;39.05;;;26.40;;
53245;SDS011;39569;51.090;-1.786;2023-08-17T05:14:53;28.45;;;23.55;;
53245;SDS011;39569;51.090;-1.786;2023-08-17T05:17:20;36.83;;;26.20;;
53245;SDS011;39569;51.090;-1.786;2023-08-17T05:19:46;26.10;;;23.40;;
53245;SDS011;39569;51.090;-1.786;2023-08-17T05:22:15;26.40;;;23.73;;
53245;SDS011;39569;51.090;-1.786;2023-08-17T05:24:41;28.83;;;25.83;;
53245;SDS011;39569;51.090;-1.786;2023-08-17T05:27:08;26.45;;;23.77;;
53245;SDS011;39569;51.090;-1.786;2023-08-17T05:29:36;25.98;;;23.40;;
53245;SDS011;39569;51.090;-1.786;2023-08-17T05:32:03;26.65;;;23.77;;
53245;SDS011;39569;51.090;-1.786;2023-08-17T05:34:30;27.90;;;25.15;;
53245;SDS011;39569;51.090;-1.786;2023-08-17T05:36:57;25.83;;;22.85;;
53245;SDS011;39569;51.090;-1.786;2023-08-17T05:39:25;26.05;;;23.27;;
53245;SDS011;39569;51.090;-1.786;2023-08-17T05:41:52;27.02;;;24.25;;
53245;SDS011;39569;51.090;-1.786;2023-08-17T05:44:19;25.83;;;23.08;;
53245;SDS011;39569;51.090;-1.786;2023-08-17T05:46:47;27.13;;;24.60;;
53245;SDS011;39569;51.090;-1.786;2023-08-17T05:49:14;27.08;;;24.55;;
53245;SDS011;39569;51.090;-1.786;2023-08-17T05:51:40;26.83;;;24.13;;
53245;SDS011;39569;51.090;-1.786;2023-08-17T05:54:07;26.45;;;23.58;;
53245;SDS011;39569;51.090;-1.786;2023-08-17T05:56:35;35.30;;;25.00;;
53245;SDS011;39569;51.090;-1.786;2023-08-17T05:59:02;25.50;;;23.02;;
53245;SDS011;39569;51.090;-1.786;2023-08-17T06:01:29;29.40;;;24.73;;
53245;SDS011;39569;51.090;-1.786;2023-08-17T06:03:56;24.05;;;21.90;;
53245;SDS011;39569;51.090;-1.786;2023-08-17T06:06:23;25.38;;;22.83;;
53245;SDS011;39569;51.090;-1.786;2023-08-17T06:08:51;26.48;;;23.67;;
53245;SDS011;39569;51.090;-1.786;2023-08-17T06:11:18;25.25;;;22.42;;
53245;SDS011;39569;51.090;-1.786;2023-08-17T06:13:46;35.15;;;25.20;;
53245;SDS011;39569;51.090;-1.786;2023-08-17T06:16:13;25.17;;;21.83;;
53245;SDS011;39569;51.090;-1.786;2023-08-17T06:18:40;25.02;;;22.63;;
53245;SDS011;39569;51.090;-1.786;2023-08-17T06:21:06;25.83;;;23.40;;
53245;SDS011;39569;51.090;-1.786;2023-08-17T06:23:33;27.73;;;23.45;;
53245;SDS011;39569;51.090;-1.786;2023-08-17T06:26:00;23.85;;;21.58;;
53245;SDS011;39569;51.090;-1.786;2023-08-17T06:28:27;27.70;;;22.58;;
53245;SDS011;39569;51.090;-1.786;2023-08-17T06:30:55;24.70;;;22.25;;
53245;SDS011;39569;51.090;-1.786;2023-08-17T06:33:22;24.08;;;21.75;;
53245;SDS011;39569;51.090;-1.786;2023-08-17T06:35:49;24.15;;;21.42;;
53245;SDS011;39569;51.090;-1.786;2023-08-17T06:38:16;22.90;;;20.75;;
53245;SDS011;39569;51.090;-1.786;2023-08-17T06:40:43;23.48;;;21.08;;
53245;SDS011;39569;51.090;-1.786;2023-08-17T06:43:11;20.35;;;18.63;;
53245;SDS011;39569;51.090;-1.786;2023-08-17T06:45:38;21.73;;;19.67;;
53245;SDS011;39569;51.090;-1.786;2023-08-17T06:48:06;20.05;;;18.10;;
53245;SDS011;39569;51.090;-1.786;2023-08-17T06:50:33;19.15;;;15.95;;
53245;SDS011;39569;51.090;-1.786;2023-08-17T06:53:00;19.60;;;17.65;;
53245;SDS011;39569;51.090;-1.786;2023-08-17T06:55:27;19.63;;;17.60;;
53245;SDS011;39569;51.090;-1.786;2023-08-17T06:57:54;21.20;;;19.10;;
53245;SDS011;39569;51.090;-1.786;2023-08-17T07:00:21;20.42;;;18.45;;
53245;SDS011;39569;51.090;-1.786;2023-08-17T07:02:47;20.17;;;18.33;;
53245;SDS011;39569;51.090;-1.786;2023-08-17T07:05:16;18.05;;;16.15;;
53245;SDS011;39569;51.090;-1.786;2023-08-17T07:07:44;18.50;;;16.67;;
53245;SDS011;39569;51.090;-1.786;2023-08-17T07:10:12;18.50;;;16.77;;
53245;SDS011;39569;51.090;-1.786;2023-08-17T07:12:39;19.70;;;17.90;;
53245;SDS011;39569;51.090;-1.786;2023-08-17T07:15:06;17.48;;;15.93;;
53245;SDS011;39569;51.090;-1.786;2023-08-17T07:17:33;17.98;;;16.35;;
53245;SDS011;39569;51.090;-1.786;2023-08-17T07:20:01;20.60;;;17.75;;
53245;SDS011;39569;51.090;-1.786;2023-08-17T07:22:30;20.60;;;17.52;;
53245;SDS011;39569;51.090;-1.786;2023-08-17T07:24:57;20.30;;;18.42;;
53245;SDS011;39569;51.090;-1.786;2023-08-17T07:27:24;20.20;;;18.38;;
53245;SDS011;39569;51.090;-1.786;2023-08-17T07:29:50;19.02;;;17.13;;
53245;SDS011;39569;51.090;-1.786;2023-08-17T07:32:17;17.65;;;15.60;;
53245;SDS011;39569;51.090;-1.786;2023-08-17T07:34:46;18.35;;;16.60;;
53245;SDS011;39569;51.090;-1.786;2023-08-17T07:37:13;19.15;;;17.30;;
53245;SDS011;39569;51.090;-1.786;2023-08-17T07:39:41;19.58;;;17.13;;
53245;SDS011;39569;51.090;-1.786;2023-08-17T07:42:08;16.75;;;15.20;;
53245;SDS011;39569;51.090;-1.786;2023-08-17T07:44:34;19.88;;;17.88;;
53245;SDS011;39569;51.090;-1.786;2023-08-17T07:47:01;17.92;;;15.57;;
53245;SDS011;39569;51.090;-1.786;2023-08-17T07:49:28;16.02;;;14.80;;
53245;SDS011;39569;51.090;-1.786;2023-08-17T07:51:55;17.08;;;15.43;;
53245;SDS011;39569;51.090;-1.786;2023-08-17T07:54:22;16.45;;;14.85;;
53245;SDS011;39569;51.090;-1.786;2023-08-17T07:56:50;15.68;;;14.27;;
53245;SDS011;39569;51.090;-1.786;2023-08-17T07:59:17;16.95;;;15.30;;
53245;SDS011;39569;51.090;-1.786;2023-08-17T08:01:44;17.30;;;15.50;;
53245;SDS011;39569;51.090;-1.786;2023-08-17T08:04:11;16.77;;;14.27;;
53245;SDS011;39569;51.090;-1.786;2023-08-17T08:06:37;16.95;;;15.13;;
53245;SDS011;39569;51.090;-1.786;2023-08-17T08:09:04;14.27;;;13.00;;
53245;SDS011;39569;51.090;-1.786;2023-08-17T08:11:32;14.27;;;13.15;;
53245;SDS011;39569;51.090;-1.786;2023-08-17T08:14:00;15.55;;;14.00;;
53245;SDS011;39569;51.090;-1.786;2023-08-17T08:16:27;15.25;;;13.73;;
53245;SDS011;39569;51.090;-1.786;2023-08-17T08:18:55;14.70;;;13.57;;
53245;SDS011;39569;51.090;-1.786;2023-08-17T08:21:22;14.30;;;13.05;;
53245;SDS011;39569;51.090;-1.786;2023-08-17T08:23:49;15.10;;;13.60;;
53245;SDS011;39569;51.090;-1.786;2023-08-17T08:26:16;19.80;;;13.18;;
53245;SDS011;39569;51.090;-1.786;2023-08-17T08:28:43;14.18;;;12.80;;
53245;SDS011;39569;51.090;-1.786;2023-08-17T08:31:11;18.27;;;13.55;;
53245;SDS011;39569;51.090;-1.786;2023-08-17T08:33:38;15.07;;;13.77;;
53245;SDS011;39569;51.090;-1.786;2023-08-17T08:36:04;12.57;;;11.02;;
53245;SDS011;39569;51.090;-1.786;2023-08-17T08:38:31;13.82;;;12.48;;
53245;SDS011;39569;51.090;-1.786;2023-08-17T08:40:58;12.80;;;11.70;;
53245;SDS011;39569;51.090;-1.786;2023-08-17T08:43:25;14.45;;;12.82;;
53245;SDS011;39569;51.090;-1.786;2023-08-17T08:45:52;13.63;;;12.32;;
53245;SDS011;39569;51.090;-1.786;2023-08-17T08:48:22;13.15;;;11.82;;
53245;SDS011;39569;51.090;-1.786;2023-08-17T08:50:52;12.85;;;11.75;;
53245;SDS011;39569;51.090;-1.786;2023-08-17T08:53:23;18.38;;;11.18;;
53245;SDS011;39569;51.090;-1.786;2023-08-17T08:55:57;11.70;;;10.48;;
53245;SDS011;39569;51.090;-1.786;2023-08-17T08:58:24;11.98;;;10.75;;
53245;SDS011;39569;51.090;-1.786;2023-08-17T09:00:52;8.93;;;8.23;;
53245;SDS011;39569;51.090;-1.786;2023-08-17T09:03:19;11.05;;;10.15;;
53245;SDS011;39569;51.090;-1.786;2023-08-17T09:05:49;11.20;;;10.32;;
53245;SDS011;39569;51.090;-1.786;2023-08-17T09:08:17;13.75;;;10.73;;
53245;SDS011;39569;51.090;-1.786;2023-08-17T09:10:47;10.30;;;9.45;;
53245;SDS011;39569;51.090;-1.786;2023-08-17T09:13:13;20.45;;;9.25;;
53245;SDS011;39569;51.090;-1.786;2023-08-17T09:15:40;8.73;;;7.93;;
53245;SDS011;39569;51.090;-1.786;2023-08-17T09:18:07;9.43;;;8.15;;
53245;SDS011;39569;51.090;-1.786;2023-08-17T09:20:36;8.75;;;7.95;;
53245;SDS011;39569;51.090;-1.786;2023-08-17T09:23:09;9.65;;;8.57;;
53245;SDS011;39569;51.090;-1.786;2023-08-17T09:25:38;7.57;;;6.88;;
53245;SDS011;39569;51.090;-1.786;2023-08-17T09:28:09;8.73;;;8.00;;
53245;SDS011;39569;51.090;-1.786;2023-08-17T09:30:55;11.63;;;8.15;;
53245;SDS011;39569;51.090;-1.786;2023-08-17T09:33:23;9.10;;;7.63;;
53245;SDS011;39569;51.090;-1.786;2023-08-17T09:35:52;6.53;;;5.93;;
53245;SDS011;39569;51.090;-1.786;2023-08-17T09:38:20;6.65;;;5.95;;
53245;SDS011;39569;51.090;-1.786;2023-08-17T09:40:47;6.25;;;5.15;;
53245;SDS011;39569;51.090;-1.786;2023-08-17T09:43:15;7.50;;;6.28;;
53245;SDS011;39569;51.090;-1.786;2023-08-17T09:45:42;5.05;;;4.65;;
53245;SDS011;39569;51.090;-1.786;2023-08-17T09:48:13;4.97;;;4.57;;
53245;SDS011;39569;51.090;-1.786;2023-08-17T09:50:41;5.15;;;4.75;;
53245;SDS011;39569;51.090;-1.786;2023-08-17T09:53:11;14.82;;;5.22;;
53245;SDS011;39569;51.090;-1.786;2023-08-17T09:55:39;5.70;;;4.15;;
53245;SDS011;39569;51.090;-1.786;2023-08-17T09:58:07;4.78;;;3.35;;
53245;SDS011;39569;51.090;-1.786;2023-08-17T10:00:34;4.20;;;3.80;;
53245;SDS011;39569;51.090;-1.786;2023-08-17T10:03:02;4.28;;;3.28;;
53245;SDS011;39569;51.090;-1.786;2023-08-17T10:05:30;5.38;;;3.00;;
53245;SDS011;39569;51.090;-1.786;2023-08-17T10:08:02;4.03;;;3.72;;
53245;SDS011;39569;51.090;-1.786;2023-08-17T10:10:31;2.80;;;2.60;;
53245;SDS011;39569;51.090;-1.786;2023-08-17T10:13:05;4.25;;;3.05;;
53245;SDS011;39569;51.090;-1.786;2023-08-17T10:15:36;3.67;;;3.33;;
53245;SDS011;39569;51.090;-1.786;2023-08-17T10:18:07;4.70;;;3.10;;
53245;SDS011;39569;51.090;-1.786;2023-08-17T10:20:39;3.95;;;3.35;;
53245;SDS011;39569;51.090;-1.786;2023-08-17T10:23:12;6.95;;;3.70;;
53245;SDS011;39569;51.090;-1.786;2023-08-17T10:25:44;3.63;;;3.20;;
53245;SDS011;39569;51.090;-1.786;2023-08-17T10:28:13;3.35;;;2.83;;
53245;SDS011;39569;51.090;-1.786;2023-08-17T10:30:42;6.10;;;3.28;;
53245;SDS011;39569;51.090;-1.786;2023-08-17T10:33:09;3.08;;;2.83;;
53245;SDS011;39569;51.090;-1.786;2023-08-17T10:35:37;3.72;;;3.28;;
53245;SDS011;39569;51.090;-1.786;2023-08-17T10:38:05;5.70;;;2.83;;
53245;SDS011;39569;51.090;-1.786;2023-08-17T10:40:37;3.10;;;2.80;;
53245;SDS011;39569;51.090;-1.786;2023-08-17T10:43:06;5.78;;;2.95;;
53245;SDS011;39569;51.090;-1.786;2023-08-17T10:45:33;2.53;;;2.30;;
53245;SDS011;39569;51.090;-1.786;2023-08-17T10:51:03;2.88;;;2.50;;
53245;SDS011;39569;51.090;-1.786;2023-08-17T10:53:34;2.70;;;2.50;;
53245;SDS011;39569;51.090;-1.786;2023-08-17T10:56:06;3.15;;;2.65;;
53245;SDS011;39569;51.090;-1.786;2023-08-17T10:58:35;3.22;;;1.73;;
53245;SDS011;39569;51.090;-1.786;2023-08-17T11:01:02;2.60;;;2.47;;
53245;SDS011;39569;51.090;-1.786;2023-08-17T11:03:29;1.98;;;1.80;;
53245;SDS011;39569;51.090;-1.786;2023-08-17T11:05:58;2.78;;;2.58;;
53245;SDS011;39569;51.090;-1.786;2023-08-17T11:08:50;3.45;;;2.75;;
53245;SDS011;39569;51.090;-1.786;2023-08-17T11:11:19;3.75;;;2.85;;
53245;SDS011;39569;51.090;-1.786;2023-08-17T11:13:49;6.10;;;2.17;;
53245;SDS011;39569;51.090;-1.786;2023-08-17T11:16:16;3.92;;;2.65;;
53245;SDS011;39569;51.090;-1.786;2023-08-17T11:18:44;2.38;;;2.00;;
53245;SDS011;39569;51.090;-1.786;2023-08-17T11:21:12;1.85;;;1.75;;
53245;SDS011;39569;51.090;-1.786;2023-08-17T11:23:40;2.25;;;2.05;;
53245;SDS011;39569;51.090;-1.786;2023-08-17T11:26:08;2.55;;;2.35;;
53245;SDS011;39569;51.090;-1.786;2023-08-17T11:28:35;2.53;;;2.33;;
53245;SDS011;39569;51.090;-1.786;2023-08-17T11:31:05;3.20;;;2.47;;
53245;SDS011;39569;51.090;-1.786;2023-08-17T11:33:34;2.42;;;2.30;;
53245;SDS011;39569;51.090;-1.786;2023-08-17T11:36:03;10.07;;;1.90;;
53245;SDS011;39569;51.090;-1.786;2023-08-17T11:38:31;4.45;;;2.42;;
53245;SDS011;39569;51.090;-1.786;2023-08-17T11:40:58;3.47;;;3.22;;
53245;SDS011;39569;51.090;-1.786;2023-08-17T11:43:26;3.63;;;2.70;;
53245;SDS011;39569;51.090;-1.786;2023-08-17T11:45:54;2.65;;;2.47;;
53245;SDS011;39569;51.090;-1.786;2023-08-17T11:48:22;4.60;;;2.92;;
53245;SDS011;39569;51.090;-1.786;2023-08-17T11:50:51;2.83;;;2.17;;
53245;SDS011;39569;51.090;-1.786;2023-08-17T11:53:18;2.70;;;2.50;;
53245;SDS011;39569;51.090;-1.786;2023-08-17T11:55:44;3.75;;;2.70;;
53245;SDS011;39569;51.090;-1.786;2023-08-17T11:58:12;2.40;;;2.22;;
53245;SDS011;39569;51.090;-1.786;2023-08-17T12:00:39;2.50;;;2.40;;
53245;SDS011;39569;51.090;-1.786;2023-08-17T12:03:12;2.80;;;2.10;;
53245;SDS011;39569;51.090;-1.786;2023-08-17T12:05:42;5.60;;;3.58;;
53245;SDS011;39569;51.090;-1.786;2023-08-17T12:08:10;3.08;;;2.88;;
53245;SDS011;39569;51.090;-1.786;2023-08-17T12:10:39;3.03;;;2.80;;
53245;SDS011;39569;51.090;-1.786;2023-08-17T12:13:10;2.70;;;2.40;;
53245;SDS011;39569;51.090;-1.786;2023-08-17T12:15:37;2.65;;;2.45;;
53245;SDS011;39569;51.090;-1.786;2023-08-17T12:18:05;5.47;;;2.83;;
53245;SDS011;39569;51.090;-1.786;2023-08-17T12:20:32;3.38;;;3.08;;
53245;SDS011;39569;51.090;-1.786;2023-08-17T12:23:02;3.00;;;2.78;;
53245;SDS011;39569;51.090;-1.786;2023-08-17T12:25:29;5.38;;;1.52;;
53245;SDS011;39569;51.090;-1.786;2023-08-17T12:27:57;2.83;;;2.63;;
53245;SDS011;39569;51.090;-1.786;2023-08-17T12:30:25;2.00;;;1.90;;
53245;SDS011;39569;51.090;-1.786;2023-08-17T12:32:54;1.77;;;1.67;;
53245;SDS011;39569;51.090;-1.786;2023-08-17T12:35:21;5.22;;;1.73;;
53245;SDS011;39569;51.090;-1.786;2023-08-17T12:37:49;1.88;;;1.55;;
53245;SDS011;39569;51.090;-1.786;2023-08-17T12:40:18;2.25;;;1.98;;
53245;SDS011;39569;51.090;-1.786;2023-08-17T12:42:45;3.45;;;2.38;;
53245;SDS011;39569;51.090;-1.786;2023-08-17T12:45:12;5.10;;;2.33;;
53245;SDS011;39569;51.090;-1.786;2023-08-17T12:47:39;2.15;;;2.00;;
53245;SDS011;39569;51.090;-1.786;2023-08-17T12:50:06;3.00;;;2.25;;
53245;SDS011;39569;51.090;-1.786;2023-08-17T12:52:34;2.55;;;1.98;;
53245;SDS011;39569;51.090;-1.786;2023-08-17T12:55:01;1.85;;;1.70;;
53245;SDS011;39569;51.090;-1.786;2023-08-17T12:57:29;2.92;;;1.83;;
53245;SDS011;39569;51.090;-1.786;2023-08-17T12:59:56;2.33;;;2.17;;
53245;SDS011;39569;51.090;-1.786;2023-08-17T13:02:23;1.60;;;1.52;;
53245;SDS011;39569;51.090;-1.786;2023-08-17T13:04:50;2.85;;;2.28;;
53245;SDS011;39569;51.090;-1.786;2023-08-17T13:07:17;1.83;;;1.73;;
53245;SDS011;39569;51.090;-1.786;2023-08-17T13:09:43;1.85;;;1.75;;
53245;SDS011;39569;51.090;-1.786;2023-08-17T13:12:11;1.90;;;1.80;;
53245;SDS011;39569;51.090;-1.786;2023-08-17T13:14:40;2.45;;;2.20;;
53245;SDS011;39569;51.090;-1.786;2023-08-17T13:17:06;1.63;;;1.50;;
53245;SDS011;39569;51.090;-1.786;2023-08-17T13:19:33;1.63;;;1.52;;
53245;SDS011;39569;51.090;-1.786;2023-08-17T13:22:00;1.60;;;1.50;;
53245;SDS011;39569;51.090;-1.786;2023-08-17T13:24:29;1.63;;;1.52;;
53245;SDS011;39569;51.090;-1.786;2023-08-17T13:26:56;5.15;;;1.92;;
53245;SDS011;39569;51.090;-1.786;2023-08-17T13:29:23;4.57;;;2.15;;
53245;SDS011;39569;51.090;-1.786;2023-08-17T13:31:51;2.03;;;1.85;;
53245;SDS011;39569;51.090;-1.786;2023-08-17T13:34:18;1.70;;;1.60;;
53245;SDS011;39569;51.090;-1.786;2023-08-17T13:36:45;1.35;;;1.13;;
53245;SDS011;39569;51.090;-1.786;2023-08-17T13:39:11;3.88;;;1.77;;
53245;SDS011;39569;51.090;-1.786;2023-08-17T13:41:38;2.28;;;1.73;;
53245;SDS011;39569;51.090;-1.786;2023-08-17T13:44:06;1.55;;;1.45;;
53245;SDS011;39569;51.090;-1.786;2023-08-17T13:46:33;3.25;;;2.10;;
53245;SDS011;39569;51.090;-1.786;2023-08-17T13:49:01;2.53;;;2.03;;
53245;SDS011;39569;51.090;-1.786;2023-08-17T13:51:28;1.63;;;1.52;;
53245;SDS011;39569;51.090;-1.786;2023-08-17T13:53:54;2.00;;;1.90;;
53245;SDS011;39569;51.090;-1.786;2023-08-17T13:56:21;1.75;;;1.52;;
53245;SDS011;39569;51.090;-1.786;2023-08-17T13:58:48;1.33;;;1.20;;
53245;SDS011;39569;51.090;-1.786;2023-08-17T14:01:15;2.00;;;1.83;;
53245;SDS011;39569;51.090;-1.786;2023-08-17T14:03:42;1.80;;;1.70;;
53245;SDS011;39569;51.090;-1.786;2023-08-17T14:06:10;1.65;;;1.55;;
53245;SDS011;39569;51.090;-1.786;2023-08-17T14:08:37;2.40;;;1.92;;
53245;SDS011;39569;51.090;-1.786;2023-08-17T14:11:04;2.22;;;1.92;;
53245;SDS011;39569;51.090;-1.786;2023-08-17T14:13:31;1.80;;;1.70;;
53245;SDS011;39569;51.090;-1.786;2023-08-17T14:15:58;1.50;;;1.40;;
53245;SDS011;39569;51.090;-1.786;2023-08-17T14:18:25;2.13;;;1.77;;
53245;SDS011;39569;51.090;-1.786;2023-08-17T14:20:52;2.13;;;2.03;;
53245;SDS011;39569;51.090;-1.786;2023-08-17T14:23:20;2.05;;;1.90;;
53245;SDS011;39569;51.090;-1.786;2023-08-17T14:25:47;1.90;;;1.80;;
53245;SDS011;39569;51.090;-1.786;2023-08-17T14:28:14;1.88;;;1.77;;
53245;SDS011;39569;51.090;-1.786;2023-08-17T14:30:41;3.53;;;1.92;;